createdAt,value
2022-11-09T00:01:10.708Z,51.13
2022-11-09T00:06:38.825Z,48.38
2022-11-09T00:12:04.964Z,46.20
2022-11-09T00:17:29.301Z,45.63
2022-11-09T00:23:00.003Z,42.38
2022-11-09T00:28:28.556Z,43.90
2022-11-09T00:33:55.667Z,40.78
2022-11-09T00:39:20.477Z,43.22
2022-11-09T00:44:43.946Z,44.58
2022-11-09T00:50:07.769Z,44.55
2022-11-09T00:55:38.512Z,43.22
2022-11-09T01:01:11.236Z,46.78
2022-11-09T01:06:34.429Z,43.80
2022-11-09T01:12:06.617Z,47.13
2022-11-09T01:17:35.191Z,48.25
2022-11-09T01:23:04.411Z,48.00
2022-11-09T01:28:35.234Z,47.90
2022-11-09T01:33:59.860Z,50.67
2022-11-09T01:39:24.823Z,47.28
2022-11-09T01:45:06.023Z,47.63
2022-11-09T01:50:40.747Z,47.55
2022-11-09T01:56:14.980Z,50.05
2022-11-09T02:01:46.806Z,51.05
2022-11-09T02:07:15.742Z,49.90
2022-11-09T02:12:45.869Z,48.45
2022-11-09T02:18:16.060Z,48.55
2022-11-09T02:23:47.465Z,46.75
2022-11-09T02:29:26.061Z,47.22
2022-11-09T02:34:48.994Z,49.63
2022-11-09T02:40:22.061Z,50.45
2022-11-09T02:45:51.660Z,51.85
2022-11-09T02:51:14.947Z,52.80
2022-11-09T02:56:43.013Z,47.78
2022-11-09T03:02:06.807Z,44.72
2022-11-09T03:07:30.415Z,41.40
2022-11-09T03:13:00.828Z,40.87
2022-11-09T03:18:25.002Z,40.90
2022-11-09T03:23:54.011Z,40.25
2022-11-09T03:29:25.225Z,40.13
2022-11-09T03:34:54.709Z,40.88
2022-11-09T03:40:23.647Z,40.30
2022-11-09T03:51:23.720Z,37.35
2022-11-09T03:56:48.784Z,45.17
2022-11-09T04:02:13.748Z,48.50
2022-11-09T04:07:47.863Z,49.05
2022-11-09T04:13:11.442Z,43.55
2022-11-09T04:18:41.356Z,46.70
2022-11-09T04:24:06.220Z,43.42
2022-11-09T04:29:34.539Z,44.08
2022-11-09T04:34:59.359Z,44.97
2022-11-09T04:40:31.340Z,46.95
2022-11-09T04:46:02.065Z,43.67
2022-11-09T04:51:31.976Z,44.97
2022-11-09T04:56:56.457Z,41.90
2022-11-09T05:02:25.708Z,47.38
2022-11-09T05:07:51.436Z,46.55
2022-11-09T05:13:15.126Z,44.60
2022-11-09T05:18:43.614Z,46.00
2022-11-09T05:24:14.237Z,49.17
2022-11-09T05:29:43.003Z,43.60
2022-11-09T05:35:12.032Z,37.22
2022-11-09T05:40:37.989Z,33.70
2022-11-09T05:46:08.343Z,36.72
2022-11-09T05:57:07.884Z,33.88
2022-11-09T06:02:36.407Z,30.98
2022-11-09T06:08:06.739Z,33.05
2022-11-09T06:19:05.326Z,30.63
2022-11-09T06:24:34.544Z,31.02
2022-11-09T06:30:04.109Z,32.05
2022-11-09T06:35:32.760Z,29.88
2022-11-09T06:40:56.913Z,30.85
2022-11-09T06:46:27.177Z,28.95
2022-11-09T06:51:54.601Z,28.23
2022-11-09T06:57:23.906Z,33.08
2022-11-09T07:02:54.478Z,32.92
2022-11-09T07:08:23.785Z,31.08
2022-11-09T07:13:57.264Z,30.48
2022-11-09T07:19:29.632Z,30.58
2022-11-09T07:24:52.669Z,31.77
2022-11-09T07:30:21.890Z,34.33
2022-11-09T07:35:52.004Z,30.80
2022-11-09T07:41:15.863Z,33.17
2022-11-09T07:46:39.127Z,35.35
2022-11-09T07:52:04.815Z,34.00
2022-11-09T07:57:28.154Z,32.22
2022-11-09T08:02:51.393Z,30.13
2022-11-09T08:08:17.287Z,30.98
2022-11-09T08:13:44.821Z,30.65
2022-11-09T08:19:11.699Z,30.52
2022-11-09T08:24:44.197Z,33.88
2022-11-09T08:30:08.852Z,34.22
2022-11-09T08:35:39.710Z,34.33
2022-11-09T08:41:09.270Z,37.45
2022-11-09T08:46:40.973Z,32.67
2022-11-09T08:52:04.666Z,31.95
2022-11-09T08:57:31.810Z,35.33
2022-11-09T09:08:57.500Z,35.78
2022-11-09T09:14:26.972Z,34.90
2022-11-09T09:19:56.044Z,34.25
2022-11-09T09:25:20.803Z,33.58
2022-11-09T09:30:52.587Z,32.55
2022-11-09T09:36:21.881Z,32.05
2022-11-09T09:41:54.168Z,30.58
2022-11-09T09:47:23.659Z,27.92
2022-11-09T09:53:18.075Z,26.88
2022-11-09T09:58:50.711Z,29.58
2022-11-09T10:04:24.671Z,30.90
2022-11-09T10:10:11.336Z,30.42
2022-11-09T10:15:46.193Z,29.95
2022-11-09T10:21:30.347Z,30.00
2022-11-09T10:27:01.844Z,31.73
2022-11-09T10:32:33.465Z,32.67
2022-11-09T10:38:05.238Z,33.72
2022-11-09T10:43:34.752Z,34.25
2022-11-09T10:49:23.249Z,35.60
2022-11-09T10:55:30.651Z,33.50
2022-11-09T11:01:22.320Z,42.58
2022-11-09T11:07:20.757Z,29.25
2022-11-09T11:13:27.847Z,28.02
2022-11-09T11:19:33.075Z,25.48
2022-11-09T11:30:30.484Z,20.50
2022-11-09T11:36:25.946Z,20.13
2022-11-09T11:42:30.453Z,18.63
2022-11-09T11:48:39.113Z,19.00
2022-11-09T11:54:38.957Z,19.52
2022-11-09T12:00:26.827Z,19.88
2022-11-09T12:06:31.770Z,19.58
2022-11-09T12:12:31.750Z,20.92
2022-11-09T12:18:35.503Z,19.65
2022-11-09T12:24:30.522Z,20.65
2022-11-09T12:30:21.452Z,20.33
2022-11-09T12:36:16.893Z,20.02
2022-11-09T12:42:12.479Z,17.35
2022-11-09T12:48:04.851Z,17.88
2022-11-09T12:53:52.858Z,20.95
2022-11-09T12:59:50.213Z,18.13
2022-11-09T13:05:40.418Z,18.27
2022-11-09T13:11:35.876Z,18.73
2022-11-09T13:18:03.643Z,20.15
2022-11-09T13:24:01.535Z,20.98
2022-11-09T13:29:56.043Z,21.05
2022-11-09T13:36:16.572Z,21.67
2022-11-09T13:42:26.735Z,19.98
2022-11-09T13:48:32.445Z,20.42
2022-11-09T13:54:30.748Z,18.70
2022-11-09T14:00:23.576Z,19.83
2022-11-09T14:06:13.860Z,18.17
2022-11-09T14:12:17.579Z,19.80
2022-11-09T14:18:26.630Z,19.08
2022-11-09T14:24:18.667Z,17.45
2022-11-09T14:30:17.420Z,18.73
2022-11-09T14:36:07.078Z,18.13
2022-11-09T14:41:57.753Z,16.55
2022-11-09T14:47:47.350Z,19.33
2022-11-09T14:53:38.435Z,22.23
2022-11-09T14:59:32.188Z,28.17
2022-11-09T15:05:32.090Z,28.52
2022-11-09T15:11:21.872Z,26.33
2022-11-09T15:17:16.769Z,23.08
2022-11-09T15:23:06.633Z,22.55
2022-11-09T15:28:58.969Z,21.52
2022-11-09T15:34:55.829Z,29.55
2022-11-09T15:40:43.126Z,32.15
2022-11-09T15:46:37.268Z,27.00
2022-11-09T15:52:26.278Z,26.05
2022-11-09T15:58:16.378Z,26.17
2022-11-09T16:04:05.859Z,27.50
2022-11-09T16:09:53.567Z,27.75
2022-11-09T16:15:40.921Z,27.38
2022-11-09T16:21:29.758Z,25.08
2022-11-09T16:27:43.441Z,24.48
2022-11-09T16:33:25.540Z,23.60
2022-11-09T16:39:17.303Z,24.27
2022-11-09T16:45:10.217Z,24.85
2022-11-09T16:50:58.083Z,25.95
2022-11-09T16:56:48.138Z,22.50
2022-11-09T17:02:36.289Z,22.92
2022-11-09T17:08:23.983Z,34.38
2022-11-09T17:14:13.997Z,31.65
2022-11-09T17:20:05.110Z,33.40
2022-11-09T17:25:56.599Z,33.55
2022-11-09T17:31:47.543Z,36.97
2022-11-09T17:37:38.533Z,37.10
2022-11-09T17:43:26.480Z,40.85
2022-11-09T17:49:15.768Z,39.58
2022-11-09T17:55:11.638Z,44.80
2022-11-09T18:01:07.075Z,40.67
2022-11-09T18:06:58.247Z,46.17
2022-11-09T18:12:47.686Z,44.72
2022-11-09T18:18:42.638Z,45.88
2022-11-09T18:24:32.993Z,51.55
2022-11-09T18:30:23.745Z,49.47
2022-11-09T18:36:15.071Z,50.97
2022-11-09T18:42:05.653Z,53.55
2022-11-09T18:47:56.762Z,53.78
2022-11-09T18:53:46.862Z,52.08
2022-11-09T18:59:40.060Z,47.70
2022-11-09T19:05:28.259Z,58.67
2022-11-09T19:11:19.751Z,48.20
2022-11-09T19:17:19.203Z,41.63
2022-11-09T19:23:07.836Z,40.42
2022-11-09T19:28:56.461Z,40.00
2022-11-09T19:34:46.205Z,42.25
2022-11-09T19:40:39.814Z,38.97
2022-11-09T19:46:30.506Z,37.33
2022-11-09T19:52:19.315Z,37.90
2022-11-09T19:58:07.477Z,41.30
2022-11-09T20:03:59.221Z,42.38
2022-11-09T20:09:52.007Z,43.70
2022-11-09T20:15:40.156Z,43.20
2022-11-09T20:21:27.942Z,44.80
2022-11-09T20:27:23.776Z,41.58
2022-11-09T20:33:13.899Z,41.45
2022-11-09T20:39:01.866Z,41.33
2022-11-09T20:44:54.694Z,43.88
2022-11-09T20:50:42.515Z,47.47
2022-11-09T20:56:31.816Z,43.50
2022-11-09T21:02:21.332Z,42.38
2022-11-09T21:08:09.690Z,41.13
2022-11-09T21:13:57.649Z,40.55
2022-11-09T21:19:47.085Z,41.47
2022-11-09T21:25:51.354Z,43.03
2022-11-09T21:31:38.507Z,39.80
2022-11-09T21:37:28.138Z,41.95
2022-11-09T21:43:16.078Z,43.67
2022-11-09T21:49:04.123Z,42.17
2022-11-09T21:54:53.035Z,45.13
2022-11-09T22:00:40.813Z,46.40
2022-11-09T22:06:29.231Z,43.05
2022-11-09T22:12:36.448Z,42.25
2022-11-09T22:18:47.206Z,42.55
2022-11-09T22:24:36.594Z,44.47
2022-11-09T22:30:26.269Z,43.78
2022-11-09T22:36:15.443Z,41.42
2022-11-09T22:42:02.710Z,43.05
2022-11-09T22:47:52.061Z,43.50
2022-11-09T22:53:39.728Z,43.00
2022-11-09T22:59:27.732Z,40.50
2022-11-09T23:05:17.109Z,43.38
2022-11-09T23:11:05.252Z,41.97
2022-11-09T23:16:53.495Z,40.78
2022-11-09T23:22:42.005Z,40.20
2022-11-09T23:28:29.687Z,41.97
2022-11-09T23:34:17.438Z,42.30
2022-11-09T23:40:07.803Z,40.25
2022-11-09T23:45:57.109Z,38.38
2022-11-09T23:51:44.611Z,40.08
2022-11-09T23:57:34.105Z,40.88
